createdAt,value
2022-07-29T00:00:35.385Z,1010.3
2022-07-29T00:01:35.381Z,1010.3
2022-07-29T00:03:35.432Z,1010.2
2022-07-29T00:04:35.445Z,1010.2
2022-07-29T00:06:35.401Z,1010.2
2022-07-29T00:07:35.379Z,1010.2
2022-07-29T00:08:35.393Z,1010.2
2022-07-29T00:09:51.361Z,1010.3
2022-07-29T00:11:35.387Z,1010.2
2022-07-29T00:12:35.384Z,1010.2
2022-07-29T00:13:35.391Z,1010.3
2022-07-29T00:14:35.405Z,1010.2
2022-07-29T00:15:35.389Z,1010.2
2022-07-29T00:16:35.454Z,1010.3
2022-07-29T00:17:35.384Z,1010.2
2022-07-29T00:18:35.390Z,1010.3
2022-07-29T00:19:35.384Z,1010.2
2022-07-29T00:20:35.381Z,1010.2
2022-07-29T00:21:35.394Z,1010.2
2022-07-29T00:22:35.385Z,1010.2
2022-07-29T00:25:35.394Z,1010.1
2022-07-29T00:26:35.383Z,1010.1
2022-07-29T00:27:35.389Z,1010.1
2022-07-29T00:28:35.382Z,1010.1
2022-07-29T00:30:35.394Z,1010
2022-07-29T00:32:35.384Z,1010
2022-07-29T00:33:35.390Z,1010
2022-07-29T00:34:35.395Z,1009.9
2022-07-29T00:35:35.387Z,1009.9
2022-07-29T00:38:35.393Z,1009.8
2022-07-29T00:39:35.399Z,1009.9
2022-07-29T00:40:35.388Z,1009.8
2022-07-29T00:41:35.390Z,1009.8
2022-07-29T00:42:35.386Z,1009.8
2022-07-29T00:43:35.398Z,1009.8
2022-07-29T00:45:35.395Z,1009.7
2022-07-29T00:46:35.410Z,1009.7
2022-07-29T00:47:35.387Z,1009.7
2022-07-29T00:48:35.384Z,1009.7
2022-07-29T00:49:35.405Z,1009.7
2022-07-29T00:50:35.393Z,1009.6
2022-07-29T00:51:35.406Z,1009.7
2022-07-29T00:53:35.395Z,1009.6
2022-07-29T00:54:35.391Z,1009.6
2022-07-29T00:55:35.390Z,1009.6
2022-07-29T00:59:35.623Z,1009.6
2022-07-29T01:00:35.455Z,1009.5
2022-07-29T01:02:35.465Z,1009.5
2022-07-29T01:03:35.408Z,1009.5
2022-07-29T01:04:35.397Z,1009.4
2022-07-29T01:06:35.389Z,1009.4
2022-07-29T01:07:35.399Z,1009.4
2022-07-29T01:08:35.399Z,1009.4
2022-07-29T01:09:45.459Z,1009.5
2022-07-29T01:10:35.393Z,1009.4
2022-07-29T01:11:35.400Z,1009.5
2022-07-29T01:12:35.395Z,1009.4
2022-07-29T01:14:35.399Z,1009.4
2022-07-29T01:15:35.436Z,1009.4
2022-07-29T01:16:35.454Z,1009.4
2022-07-29T01:20:35.388Z,1009.3
2022-07-29T01:21:35.395Z,1009.3
2022-07-29T01:23:35.404Z,1009.3
2022-07-29T01:24:35.397Z,1009.3
2022-07-29T01:25:35.398Z,1009.2
2022-07-29T01:26:35.406Z,1009.2
2022-07-29T01:27:35.401Z,1009.2
2022-07-29T01:28:35.405Z,1009.2
2022-07-29T01:29:36.030Z,1009.2
2022-07-29T01:30:35.413Z,1009.2
2022-07-29T01:32:35.424Z,1009.3
2022-07-29T01:33:35.407Z,1009.3
2022-07-29T01:34:35.407Z,1009.3
2022-07-29T01:35:35.407Z,1009.3
2022-07-29T01:36:35.402Z,1009.3
2022-07-29T01:37:35.410Z,1009.3
2022-07-29T01:41:35.708Z,1009.3
2022-07-29T01:42:35.413Z,1009.3
2022-07-29T01:45:35.406Z,1009.2
2022-07-29T01:46:35.519Z,1009.2
2022-07-29T01:47:35.663Z,1009.3
2022-07-29T01:48:35.409Z,1009.2
2022-07-29T01:49:35.410Z,1009.2
2022-07-29T01:50:35.419Z,1009.2
2022-07-29T01:51:35.406Z,1009.2
2022-07-29T01:53:37.753Z,1009.2
2022-07-29T01:54:35.412Z,1009.2
2022-07-29T01:55:35.409Z,1009.2
2022-07-29T01:56:35.401Z,1009.2
2022-07-29T01:57:35.407Z,1009.2
2022-07-29T01:58:35.405Z,1009.2
2022-07-29T02:01:35.484Z,1009.1
2022-07-29T02:02:35.415Z,1009.1
2022-07-29T02:03:35.417Z,1009.1
2022-07-29T02:06:35.418Z,1009.1
2022-07-29T02:07:35.431Z,1009.1
2022-07-29T02:08:35.422Z,1009.1
2022-07-29T02:09:35.406Z,1009.1
2022-07-29T02:11:35.431Z,1009.1
2022-07-29T02:12:35.421Z,1009.1
2022-07-29T02:14:35.419Z,1009.1
2022-07-29T02:15:35.411Z,1009.1
2022-07-29T02:16:35.448Z,1009.1
2022-07-29T02:17:35.415Z,1009.1
2022-07-29T02:18:35.417Z,1009.1
2022-07-29T02:19:35.410Z,1009.1
2022-07-29T02:20:35.415Z,1009.1
2022-07-29T02:22:35.428Z,1009.1
2022-07-29T02:23:45.107Z,1009.1
2022-07-29T02:24:35.431Z,1009.1
2022-07-29T02:27:35.442Z,1009.1
2022-07-29T02:28:35.420Z,1009.1
2022-07-29T02:29:35.426Z,1009
2022-07-29T02:30:35.414Z,1009
2022-07-29T02:32:35.416Z,1009
2022-07-29T02:33:35.413Z,1009
2022-07-29T02:35:35.410Z,1009
2022-07-29T02:37:35.414Z,1009
2022-07-29T02:38:35.420Z,1009
2022-07-29T02:39:35.425Z,1009
2022-07-29T02:40:35.439Z,1009
2022-07-29T02:41:35.422Z,1009
2022-07-29T02:43:35.414Z,1009
2022-07-29T02:44:35.455Z,1009
2022-07-29T02:45:35.418Z,1009
2022-07-29T02:46:35.482Z,1008.9
2022-07-29T02:48:35.418Z,1009
2022-07-29T02:49:35.420Z,1009
2022-07-29T02:51:43.794Z,1009
2022-07-29T02:53:35.436Z,1009.1
2022-07-29T02:54:35.425Z,1009.1
2022-07-29T02:58:35.429Z,1009.1
2022-07-29T02:59:35.437Z,1009.2
2022-07-29T03:04:35.492Z,1009.4
2022-07-29T03:05:35.422Z,1009.5
2022-07-29T03:06:38.274Z,1009.6
2022-07-29T03:07:35.434Z,1009.6
2022-07-29T03:09:35.425Z,1009.5
2022-07-29T03:10:35.437Z,1009.6
2022-07-29T03:11:42.260Z,1009.5
2022-07-29T03:12:35.425Z,1009.5
2022-07-29T03:14:35.421Z,1009.5
2022-07-29T03:15:35.501Z,1009.5
2022-07-29T03:17:35.418Z,1009.6
2022-07-29T03:20:35.422Z,1009.7
2022-07-29T03:21:35.445Z,1009.7
2022-07-29T03:22:35.431Z,1009.6
2022-07-29T03:23:36.829Z,1009.6
2022-07-29T03:25:35.424Z,1009.5
2022-07-29T03:26:35.431Z,1009.5
2022-07-29T03:27:35.427Z,1009.5
2022-07-29T03:28:35.426Z,1009.5
2022-07-29T03:30:35.443Z,1009.6
2022-07-29T03:31:35.481Z,1009.6
2022-07-29T03:32:35.433Z,1009.6
2022-07-29T03:33:35.435Z,1009.6
2022-07-29T03:34:35.435Z,1009.6
2022-07-29T03:35:35.430Z,1009.6
2022-07-29T03:36:35.435Z,1009.6
2022-07-29T03:38:35.432Z,1009.5
2022-07-29T03:40:35.443Z,1009.5
2022-07-29T03:41:35.435Z,1009.4
2022-07-29T03:42:35.433Z,1009.4
2022-07-29T03:43:35.438Z,1009.4
2022-07-29T03:46:35.486Z,1009.5
2022-07-29T03:47:49.820Z,1009.5
2022-07-29T03:48:35.427Z,1009.5
2022-07-29T03:49:35.442Z,1009.5
2022-07-29T03:51:35.429Z,1009.5
2022-07-29T03:52:35.439Z,1009.5
2022-07-29T03:53:35.437Z,1009.5
2022-07-29T03:55:35.431Z,1009.5
2022-07-29T03:56:35.440Z,1009.5
2022-07-29T03:57:35.445Z,1009.5
2022-07-29T03:59:35.432Z,1009.5
2022-07-29T04:00:35.434Z,1009.6
2022-07-29T04:01:35.545Z,1009.6
2022-07-29T04:02:35.438Z,1009.6
2022-07-29T04:03:35.533Z,1009.7
2022-07-29T04:05:35.437Z,1009.7
2022-07-29T04:07:35.470Z,1009.8
2022-07-29T04:08:35.440Z,1009.8
2022-07-29T04:10:35.766Z,1009.9
2022-07-29T04:12:35.435Z,1009.9
2022-07-29T04:13:35.435Z,1010
2022-07-29T04:14:35.451Z,1010
2022-07-29T04:15:35.472Z,1010.2
2022-07-29T04:16:35.585Z,1010.3
2022-07-29T04:19:35.449Z,1010.4
2022-07-29T04:20:35.438Z,1010.4
2022-07-29T04:23:35.437Z,1010.3
2022-07-29T04:24:35.432Z,1010.3
2022-07-29T04:25:35.440Z,1010.3
2022-07-29T04:26:35.439Z,1010.2
2022-07-29T04:27:35.443Z,1010.2
2022-07-29T04:28:35.440Z,1010.2
2022-07-29T04:29:35.464Z,1010.2
2022-07-29T04:31:35.605Z,1010
2022-07-29T04:32:35.442Z,1010
2022-07-29T04:34:35.443Z,1010
2022-07-29T04:35:38.454Z,1010.1
2022-07-29T04:36:35.442Z,1010.1
2022-07-29T04:37:35.446Z,1010.1
2022-07-29T04:39:35.469Z,1010.1
2022-07-29T04:40:35.455Z,1010
2022-07-29T04:41:35.448Z,1010
2022-07-29T04:42:35.437Z,1010
2022-07-29T04:44:37.118Z,1010
2022-07-29T04:45:35.448Z,1010
2022-07-29T04:46:35.561Z,1010.1
2022-07-29T04:47:35.452Z,1010
2022-07-29T04:50:35.443Z,1010.1
2022-07-29T04:52:35.456Z,1010.1
2022-07-29T04:54:35.457Z,1010
2022-07-29T04:55:35.454Z,1010.1
2022-07-29T04:56:35.451Z,1010
2022-07-29T04:57:35.451Z,1010
2022-07-29T04:58:35.447Z,1009.9
2022-07-29T05:00:35.455Z,1009.9
2022-07-29T05:01:35.503Z,1009.9
2022-07-29T05:02:35.588Z,1009.9
2022-07-29T05:03:35.453Z,1009.9
2022-07-29T05:05:35.460Z,1009.9
2022-07-29T05:06:35.456Z,1009.8
2022-07-29T05:07:35.447Z,1009.9
2022-07-29T05:08:35.454Z,1009.9
2022-07-29T05:10:35.455Z,1009.8
2022-07-29T05:11:35.455Z,1009.8
2022-07-29T05:13:45.270Z,1009.8
2022-07-29T05:15:35.498Z,1009.8
2022-07-29T05:16:35.458Z,1009.7
2022-07-29T05:17:35.458Z,1009.7
2022-07-29T05:19:39.498Z,1009.6
2022-07-29T05:21:35.462Z,1009.6
2022-07-29T05:23:35.463Z,1009.7
2022-07-29T05:24:35.449Z,1009.7
2022-07-29T05:26:35.469Z,1009.6
2022-07-29T05:27:35.450Z,1009.7
2022-07-29T05:28:35.448Z,1009.7
2022-07-29T05:29:44.964Z,1009.7
2022-07-29T05:31:35.473Z,1009.7
2022-07-29T05:34:35.459Z,1009.7
2022-07-29T05:36:35.464Z,1009.7
2022-07-29T05:37:35.462Z,1009.7
2022-07-29T05:38:35.467Z,1009.7
2022-07-29T05:39:47.125Z,1009.7
2022-07-29T05:40:35.453Z,1009.8
2022-07-29T05:42:35.456Z,1009.9
2022-07-29T05:43:35.462Z,1009.9
2022-07-29T05:44:35.486Z,1010
2022-07-29T05:45:35.454Z,1010.1
2022-07-29T05:47:35.461Z,1010.1
2022-07-29T05:48:35.463Z,1010.2
2022-07-29T05:49:35.520Z,1010.2
2022-07-29T05:50:35.462Z,1010.2
2022-07-29T05:51:35.456Z,1010.2
2022-07-29T05:52:35.459Z,1010.1
2022-07-29T05:53:35.464Z,1010.1
2022-07-29T05:55:35.453Z,1010
2022-07-29T05:56:35.478Z,1010
2022-07-29T05:57:35.468Z,1010
2022-07-29T05:58:35.464Z,1010
2022-07-29T05:59:35.459Z,1009.9
2022-07-29T06:00:35.469Z,1009.9
2022-07-29T06:01:35.571Z,1009.8
2022-07-29T06:03:35.467Z,1009.8
2022-07-29T06:04:35.533Z,1009.8
2022-07-29T06:05:35.469Z,1009.8
2022-07-29T06:06:35.562Z,1009.7
2022-07-29T06:08:35.588Z,1009.6
2022-07-29T06:09:36.336Z,1009.6
2022-07-29T06:10:35.461Z,1009.6
2022-07-29T06:11:35.465Z,1009.6
2022-07-29T06:12:35.461Z,1009.6
2022-07-29T06:13:35.458Z,1009.6
2022-07-29T06:14:35.454Z,1009.6
2022-07-29T06:16:35.522Z,1009.5
2022-07-29T06:17:35.455Z,1009.5
2022-07-29T06:18:35.466Z,1009.5
2022-07-29T06:19:35.472Z,1009.5
2022-07-29T06:20:35.462Z,1009.5
2022-07-29T06:22:35.458Z,1009.5
2022-07-29T06:24:35.462Z,1009.5
2022-07-29T06:25:35.466Z,1009.5
2022-07-29T06:26:39.646Z,1009.5
2022-07-29T06:27:35.645Z,1009.5
2022-07-29T06:29:35.454Z,1009.4
2022-07-29T06:30:35.525Z,1009.4
2022-07-29T06:32:38.907Z,1009.3
2022-07-29T06:33:35.458Z,1009.3
2022-07-29T06:34:35.454Z,1009.3
2022-07-29T06:35:39.437Z,1009.3
2022-07-29T06:37:35.461Z,1009.4
2022-07-29T06:38:40.364Z,1009.5
2022-07-29T06:39:35.466Z,1009.6
2022-07-29T06:40:35.461Z,1009.7
2022-07-29T06:42:35.452Z,1009.7
2022-07-29T06:43:35.468Z,1009.8
2022-07-29T06:45:35.471Z,1009.8
2022-07-29T06:46:35.596Z,1009.9
2022-07-29T06:47:35.463Z,1009.8
2022-07-29T06:48:35.478Z,1009.9
2022-07-29T06:50:35.469Z,1009.8
2022-07-29T06:51:35.457Z,1009.8
2022-07-29T06:52:35.468Z,1009.8
2022-07-29T06:53:35.461Z,1009.7
2022-07-29T06:54:35.464Z,1009.8
2022-07-29T06:55:35.461Z,1009.8
2022-07-29T06:56:39.524Z,1009.8
2022-07-29T06:58:35.469Z,1009.9
2022-07-29T06:59:36.094Z,1009.9
2022-07-29T07:01:35.563Z,1009.9
2022-07-29T07:02:35.572Z,1009.9
2022-07-29T07:03:35.466Z,1009.9
2022-07-29T07:04:35.474Z,1009.9
2022-07-29T07:06:35.470Z,1010
2022-07-29T07:07:35.481Z,1010
2022-07-29T07:08:35.463Z,1010
2022-07-29T07:09:40.414Z,1010
2022-07-29T07:11:35.466Z,1010
2022-07-29T07:12:35.468Z,1010
2022-07-29T07:13:36.710Z,1010.1
2022-07-29T07:14:35.463Z,1010.1
2022-07-29T07:15:39.911Z,1010.1
2022-07-29T07:17:35.473Z,1010.1
2022-07-29T07:19:35.489Z,1010.1
2022-07-29T07:20:35.486Z,1010.1
2022-07-29T07:22:38.763Z,1010.2
2022-07-29T07:23:35.478Z,1010.2
2022-07-29T07:24:35.467Z,1010.2
2022-07-29T07:27:35.479Z,1010.3
2022-07-29T07:28:35.464Z,1010.3
2022-07-29T07:29:35.477Z,1010.3
2022-07-29T07:30:35.480Z,1010.4
2022-07-29T07:31:35.556Z,1010.3
2022-07-29T07:32:35.472Z,1010.4
2022-07-29T07:33:35.471Z,1010.4
2022-07-29T07:34:35.470Z,1010.4
2022-07-29T07:35:35.468Z,1010.5
2022-07-29T07:36:35.475Z,1010.5
2022-07-29T07:38:35.479Z,1010.6
2022-07-29T07:39:35.470Z,1010.6
2022-07-29T07:40:35.488Z,1010.6
2022-07-29T07:43:35.481Z,1010.6
2022-07-29T07:44:51.242Z,1010.6
2022-07-29T07:45:35.591Z,1010.6
2022-07-29T07:46:35.471Z,1010.6
2022-07-29T07:48:35.471Z,1010.5
2022-07-29T07:49:35.484Z,1010.5
2022-07-29T07:51:35.477Z,1010.5
2022-07-29T07:52:35.484Z,1010.6
2022-07-29T07:53:35.490Z,1010.5
2022-07-29T07:54:35.477Z,1010.5
2022-07-29T07:56:00.473Z,1010.6
2022-07-29T07:56:35.566Z,1010.5
2022-07-29T07:57:35.476Z,1010.5
2022-07-29T07:59:35.483Z,1010.5
2022-07-29T08:00:35.486Z,1010.6
2022-07-29T08:01:48.451Z,1010.5
2022-07-29T08:02:35.532Z,1010.6
2022-07-29T08:04:35.491Z,1010.5
2022-07-29T08:05:35.479Z,1010.5
2022-07-29T08:06:35.504Z,1010.5
2022-07-29T08:07:35.489Z,1010.5
2022-07-29T08:08:35.482Z,1010.4
2022-07-29T08:10:35.477Z,1010.5
2022-07-29T08:12:35.489Z,1010.5
2022-07-29T08:13:35.477Z,1010.5
2022-07-29T08:14:35.484Z,1010.5
2022-07-29T08:15:35.490Z,1010.6
2022-07-29T08:16:35.585Z,1010.6
2022-07-29T08:17:35.667Z,1010.6
2022-07-29T08:18:35.491Z,1010.6
2022-07-29T08:21:35.482Z,1010.6
2022-07-29T08:22:35.490Z,1010.6
2022-07-29T08:23:46.822Z,1010.5
2022-07-29T08:26:35.483Z,1010.5
2022-07-29T08:27:44.088Z,1010.5
2022-07-29T08:28:35.485Z,1010.5
2022-07-29T08:29:35.487Z,1010.5
2022-07-29T08:30:35.495Z,1010.5
2022-07-29T08:31:35.624Z,1010.5
2022-07-29T08:33:35.493Z,1010.5
2022-07-29T08:34:35.493Z,1010.5
2022-07-29T08:36:35.488Z,1010.5
2022-07-29T08:37:35.483Z,1010.5
2022-07-29T08:38:35.487Z,1010.5
2022-07-29T08:39:35.495Z,1010.5
2022-07-29T08:41:35.501Z,1010.6
2022-07-29T08:42:35.499Z,1010.6
2022-07-29T08:43:35.493Z,1010.6
2022-07-29T08:44:35.494Z,1010.6
2022-07-29T08:46:35.489Z,1010.6
2022-07-29T08:47:35.504Z,1010.6
2022-07-29T08:48:35.499Z,1010.6
2022-07-29T08:49:35.490Z,1010.6
2022-07-29T08:50:35.498Z,1010.6
2022-07-29T08:51:35.492Z,1010.6
2022-07-29T08:52:35.492Z,1010.5
2022-07-29T08:54:35.503Z,1010.5
2022-07-29T08:55:35.498Z,1010.5
2022-07-29T08:56:35.525Z,1010.5
2022-07-29T08:57:35.494Z,1010.5
2022-07-29T08:58:37.001Z,1010.5
2022-07-29T09:00:35.556Z,1010.5
2022-07-29T09:02:35.505Z,1010.5
2022-07-29T09:03:35.560Z,1010.5
2022-07-29T09:04:35.511Z,1010.5
2022-07-29T09:05:40.160Z,1010.6
2022-07-29T09:07:35.497Z,1010.5
2022-07-29T09:08:35.514Z,1010.5
2022-07-29T09:10:35.491Z,1010.6
2022-07-29T09:11:35.500Z,1010.5
2022-07-29T09:12:38.054Z,1010.5
2022-07-29T09:13:35.499Z,1010.6
2022-07-29T09:15:35.495Z,1010.5
2022-07-29T09:16:52.170Z,1010.5
2022-07-29T09:17:35.522Z,1010.5
2022-07-29T09:18:35.510Z,1010.5
2022-07-29T09:19:35.517Z,1010.5
2022-07-29T09:20:35.509Z,1010.4
2022-07-29T09:21:35.499Z,1010.5
2022-07-29T09:24:35.493Z,1010.4
2022-07-29T09:25:35.505Z,1010.4
2022-07-29T09:26:35.493Z,1010.5
2022-07-29T09:28:35.501Z,1010.5
2022-07-29T09:29:36.428Z,1010.5
2022-07-29T09:30:35.518Z,1010.6
2022-07-29T09:31:35.654Z,1010.6
2022-07-29T09:32:35.498Z,1010.6
2022-07-29T09:36:35.500Z,1010.5
2022-07-29T09:37:35.513Z,1010.4
2022-07-29T09:39:35.507Z,1010.4
2022-07-29T09:40:35.518Z,1010.4
2022-07-29T09:41:35.510Z,1010.4
2022-07-29T09:42:35.498Z,1010.4
2022-07-29T09:43:35.508Z,1010.4
2022-07-29T09:44:35.501Z,1010.4
2022-07-29T09:45:35.517Z,1010.4
2022-07-29T09:47:35.499Z,1010.3
2022-07-29T09:48:35.506Z,1010.3
2022-07-29T09:49:35.504Z,1010.3
2022-07-29T09:50:35.503Z,1010.3
2022-07-29T09:51:38.193Z,1010.3
2022-07-29T09:52:35.509Z,1010.3
2022-07-29T09:53:35.511Z,1010.3
2022-07-29T09:55:35.503Z,1010.3
2022-07-29T09:57:35.535Z,1010.2
2022-07-29T09:58:35.507Z,1010.2
2022-07-29T10:00:35.601Z,1010.2
2022-07-29T10:01:35.514Z,1010.2
2022-07-29T10:02:35.508Z,1010.2
2022-07-29T10:04:35.520Z,1010.2
2022-07-29T10:05:36.769Z,1010.2
2022-07-29T10:06:35.516Z,1010.1
2022-07-29T10:08:35.773Z,1010.1
2022-07-29T10:09:35.506Z,1010.2
2022-07-29T10:10:35.506Z,1010.2
2022-07-29T10:11:48.468Z,1010.1
2022-07-29T10:12:35.516Z,1010.1
2022-07-29T10:14:35.518Z,1010.1
2022-07-29T10:16:35.623Z,1010.2
2022-07-29T10:17:35.515Z,1010.2
2022-07-29T10:18:35.511Z,1010.2
2022-07-29T10:19:35.521Z,1010.2
2022-07-29T10:21:36.593Z,1010.2
2022-07-29T10:22:52.425Z,1010.2
2022-07-29T10:24:35.524Z,1010.2
2022-07-29T10:25:35.522Z,1010.2
2022-07-29T10:26:35.523Z,1010.2
2022-07-29T10:29:35.521Z,1010.1
2022-07-29T10:30:35.527Z,1010.1
2022-07-29T10:31:35.630Z,1010.1
2022-07-29T10:34:35.518Z,1010.1
2022-07-29T10:35:35.516Z,1010.1
2022-07-29T10:37:36.226Z,1010.1
2022-07-29T10:38:35.523Z,1010.1
2022-07-29T10:39:44.742Z,1010.1
2022-07-29T10:40:35.858Z,1010.2
2022-07-29T10:42:35.529Z,1010.2
2022-07-29T10:43:35.519Z,1010.2
2022-07-29T10:44:35.531Z,1010.1
2022-07-29T10:45:35.520Z,1010.2
2022-07-29T10:46:35.584Z,1010.2
2022-07-29T10:48:35.520Z,1010.2
2022-07-29T10:50:35.532Z,1010.1
2022-07-29T10:51:35.521Z,1010.1
2022-07-29T10:53:35.536Z,1010.1
2022-07-29T10:54:35.526Z,1010.2
2022-07-29T10:55:35.743Z,1010.2
2022-07-29T10:56:35.552Z,1010.2
2022-07-29T10:59:36.445Z,1010.2
2022-07-29T11:00:35.536Z,1010.2
2022-07-29T11:01:37.267Z,1010.2
2022-07-29T11:03:35.585Z,1010.3
2022-07-29T11:04:35.540Z,1010.3
2022-07-29T11:05:40.042Z,1010.3
2022-07-29T11:06:35.534Z,1010.3
2022-07-29T11:07:45.788Z,1010.3
2022-07-29T11:09:38.419Z,1010.3
2022-07-29T11:11:35.609Z,1010.3
2022-07-29T11:14:35.524Z,1010.3
2022-07-29T11:15:35.534Z,1010.3
2022-07-29T11:16:35.521Z,1010.3
2022-07-29T11:17:37.505Z,1010.3
2022-07-29T11:19:35.821Z,1010.4
2022-07-29T11:20:36.579Z,1010.3
2022-07-29T11:21:35.964Z,1010.4
2022-07-29T11:24:35.684Z,1010.4
2022-07-29T11:25:50.851Z,1010.4
2022-07-29T11:26:35.532Z,1010.4
2022-07-29T11:27:35.535Z,1010.4
2022-07-29T11:28:36.738Z,1010.4
2022-07-29T11:30:35.540Z,1010.4
2022-07-29T11:32:35.529Z,1010.4
2022-07-29T11:33:54.280Z,1010.4
2022-07-29T11:34:35.540Z,1010.4
2022-07-29T11:35:38.297Z,1010.4
2022-07-29T11:36:35.529Z,1010.4
2022-07-29T11:37:42.443Z,1010.4
2022-07-29T11:38:35.539Z,1010.4
2022-07-29T11:39:36.686Z,1010.4
2022-07-29T11:41:35.544Z,1010.4
2022-07-29T11:43:35.545Z,1010.4
2022-07-29T11:46:35.541Z,1010.5
2022-07-29T11:47:38.380Z,1010.5
2022-07-29T11:48:35.538Z,1010.5
2022-07-29T11:49:35.583Z,1010.4
2022-07-29T11:50:35.568Z,1010.4
2022-07-29T11:53:35.545Z,1010.4
2022-07-29T11:54:38.689Z,1010.4
2022-07-29T11:55:35.576Z,1010.4
2022-07-29T11:56:35.550Z,1010.4
2022-07-29T11:57:36.346Z,1010.4
2022-07-29T11:58:35.548Z,1010.4
2022-07-29T11:59:35.552Z,1010.3
2022-07-29T12:02:37.048Z,1010.3
2022-07-29T12:03:36.673Z,1010.4
2022-07-29T12:04:35.547Z,1010.4
2022-07-29T12:07:35.568Z,1010.4
2022-07-29T12:08:35.545Z,1010.3
2022-07-29T12:09:40.299Z,1010.4
2022-07-29T12:10:35.550Z,1010.4
2022-07-29T12:12:35.547Z,1010.4
2022-07-29T12:14:35.550Z,1010.4
2022-07-29T12:15:45.872Z,1010.4
2022-07-29T12:17:35.659Z,1010.4
2022-07-29T12:18:35.554Z,1010.4
2022-07-29T12:19:35.560Z,1010.4
2022-07-29T12:23:35.749Z,1010.3
2022-07-29T12:24:35.556Z,1010.3
2022-07-29T12:25:35.556Z,1010.3
2022-07-29T12:28:35.556Z,1010.3
2022-07-29T12:29:35.937Z,1010.3
2022-07-29T12:30:35.563Z,1010.3
2022-07-29T12:31:42.348Z,1010.3
2022-07-29T12:32:35.651Z,1010.3
2022-07-29T12:35:35.562Z,1010.3
2022-07-29T12:37:42.502Z,1010.3
2022-07-29T12:38:35.618Z,1010.4
2022-07-29T12:39:35.564Z,1010.3
2022-07-29T12:40:35.587Z,1010.4
2022-07-29T12:41:35.556Z,1010.4
2022-07-29T12:44:35.571Z,1010.4
2022-07-29T12:45:35.577Z,1010.4
2022-07-29T12:46:35.646Z,1010.4
2022-07-29T12:49:38.089Z,1010.4
2022-07-29T12:51:35.575Z,1010.3
2022-07-29T12:52:35.568Z,1010.4
2022-07-29T12:53:36.059Z,1010.3
2022-07-29T12:54:35.577Z,1010.4
2022-07-29T12:56:42.810Z,1010.4
2022-07-29T12:57:35.576Z,1010.3
2022-07-29T12:58:35.577Z,1010.3
2022-07-29T12:59:35.571Z,1010.3
2022-07-29T13:00:35.612Z,1010.3
2022-07-29T13:01:35.573Z,1010.3
2022-07-29T13:02:35.651Z,1010.3
2022-07-29T13:06:35.577Z,1010.3
2022-07-29T13:07:55.740Z,1010.3
2022-07-29T13:10:35.576Z,1010.4
2022-07-29T13:11:35.592Z,1010.4
2022-07-29T13:12:35.580Z,1010.4
2022-07-29T13:13:35.589Z,1010.4
2022-07-29T13:14:35.585Z,1010.4
2022-07-29T13:15:35.581Z,1010.5
2022-07-29T13:17:35.638Z,1010.4
2022-07-29T13:18:35.574Z,1010.4
2022-07-29T13:19:35.577Z,1010.5
2022-07-29T13:20:35.585Z,1010.4
2022-07-29T13:21:35.582Z,1010.5
2022-07-29T13:22:35.581Z,1010.4
2022-07-29T13:23:38.406Z,1010.4
2022-07-29T13:26:35.595Z,1010.4
2022-07-29T13:27:35.587Z,1010.4
2022-07-29T13:28:35.585Z,1010.4
2022-07-29T13:31:35.579Z,1010.5
2022-07-29T13:32:35.579Z,1010.4
2022-07-29T13:33:35.596Z,1010.4
2022-07-29T13:34:35.589Z,1010.4
2022-07-29T13:35:35.588Z,1010.4
2022-07-29T13:36:38.795Z,1010.4
2022-07-29T13:38:35.696Z,1010.4
2022-07-29T13:39:35.591Z,1010.4
2022-07-29T13:40:35.585Z,1010.3
2022-07-29T13:41:35.582Z,1010.3
2022-07-29T13:42:35.592Z,1010.4
2022-07-29T13:43:35.586Z,1010.4
2022-07-29T13:44:35.598Z,1010.4
2022-07-29T13:45:35.621Z,1010.4
2022-07-29T13:47:35.664Z,1010.3
2022-07-29T13:49:35.585Z,1010.3
2022-07-29T13:50:35.605Z,1010.3
2022-07-29T13:52:35.585Z,1010.3
2022-07-29T13:53:35.586Z,1010.3
2022-07-29T13:54:38.850Z,1010.3
2022-07-29T13:55:35.586Z,1010.2
2022-07-29T13:57:35.596Z,1010.3
2022-07-29T13:58:35.588Z,1010.3
2022-07-29T13:59:35.600Z,1010.3
2022-07-29T14:00:35.596Z,1010.3
2022-07-29T14:02:35.607Z,1010.3
2022-07-29T14:03:35.586Z,1010.2
2022-07-29T14:04:35.639Z,1010.3
2022-07-29T14:05:35.600Z,1010.3
2022-07-29T14:06:35.598Z,1010.2
2022-07-29T14:07:35.600Z,1010.3
2022-07-29T14:08:35.602Z,1010.3
2022-07-29T14:10:35.615Z,1010.2
2022-07-29T14:11:35.586Z,1010.3
2022-07-29T14:13:35.600Z,1010.3
2022-07-29T14:14:35.599Z,1010.4
2022-07-29T14:15:35.600Z,1010.3
2022-07-29T14:18:35.605Z,1010.3
2022-07-29T14:19:35.595Z,1010.3
2022-07-29T14:20:35.595Z,1010.3
2022-07-29T14:21:35.612Z,1010.3
2022-07-29T14:23:35.602Z,1010.2
2022-07-29T14:24:37.139Z,1010.3
2022-07-29T14:25:35.609Z,1010.3
2022-07-29T14:26:35.615Z,1010.3
2022-07-29T14:27:38.434Z,1010.3
2022-07-29T14:29:38.071Z,1010.2
2022-07-29T14:31:35.633Z,1010.2
2022-07-29T14:32:35.609Z,1010.2
2022-07-29T14:34:35.620Z,1010.2
2022-07-29T14:35:35.614Z,1010.2
2022-07-29T14:36:35.611Z,1010.3
2022-07-29T14:37:39.865Z,1010.2
2022-07-29T14:39:38.140Z,1010.2
2022-07-29T14:40:35.621Z,1010.3
2022-07-29T14:41:35.601Z,1010.2
2022-07-29T14:42:35.605Z,1010.2
2022-07-29T14:44:35.606Z,1010.2
2022-07-29T14:45:35.656Z,1010.2
2022-07-29T14:46:35.698Z,1010.2
2022-07-29T14:47:35.619Z,1010.2
2022-07-29T14:48:35.617Z,1010.2
2022-07-29T14:49:35.613Z,1010.2
2022-07-29T14:50:35.613Z,1010.2
2022-07-29T14:52:35.598Z,1010.2
2022-07-29T14:53:35.622Z,1010.2
2022-07-29T14:54:35.609Z,1010.2
2022-07-29T14:55:35.614Z,1010.2
2022-07-29T14:56:37.365Z,1010.2
2022-07-29T14:57:35.618Z,1010.2
2022-07-29T14:58:35.612Z,1010.2
2022-07-29T15:01:35.638Z,1010.2
2022-07-29T15:03:00.536Z,1010.2
2022-07-29T15:03:35.621Z,1010.2
2022-07-29T15:06:35.616Z,1010.2
2022-07-29T15:07:35.608Z,1010.2
2022-07-29T15:08:35.625Z,1010.2
2022-07-29T15:09:36.314Z,1010.2
2022-07-29T15:10:35.620Z,1010.2
2022-07-29T15:11:38.350Z,1010.2
2022-07-29T15:13:35.623Z,1010.2
2022-07-29T15:14:35.621Z,1010.3
2022-07-29T15:15:35.622Z,1010.2
2022-07-29T15:16:35.669Z,1010.2
2022-07-29T15:17:35.629Z,1010.2
2022-07-29T15:18:35.635Z,1010.2
2022-07-29T15:19:35.621Z,1010.2
2022-07-29T15:21:35.628Z,1010.2
2022-07-29T15:23:35.619Z,1010.2
2022-07-29T15:24:35.624Z,1010.3
2022-07-29T15:27:35.627Z,1010.3
2022-07-29T15:28:35.623Z,1010.3
2022-07-29T15:29:35.631Z,1010.3
2022-07-29T15:30:35.702Z,1010.3
2022-07-29T15:31:35.729Z,1010.3
2022-07-29T15:34:35.618Z,1010.2
2022-07-29T15:35:40.464Z,1010.2
2022-07-29T15:36:51.038Z,1010.2
2022-07-29T15:37:49.180Z,1010.2
2022-07-29T15:38:35.629Z,1010.2
2022-07-29T15:39:35.628Z,1010.2
2022-07-29T15:40:35.629Z,1010.2
2022-07-29T15:42:35.643Z,1010.2
2022-07-29T15:43:35.635Z,1010.2
2022-07-29T15:44:36.022Z,1010.2
2022-07-29T15:45:38.368Z,1010.2
2022-07-29T15:46:35.627Z,1010.3
2022-07-29T15:48:35.628Z,1010.3
2022-07-29T15:49:47.463Z,1010.2
2022-07-29T15:50:35.643Z,1010.2
2022-07-29T15:51:35.622Z,1010.2
2022-07-29T15:54:35.631Z,1010.2
2022-07-29T15:55:35.629Z,1010.2
2022-07-29T15:56:35.626Z,1010.2
2022-07-29T15:57:35.636Z,1010.2
2022-07-29T15:59:35.632Z,1010.2
2022-07-29T16:01:35.652Z,1010.2
2022-07-29T16:02:35.644Z,1010.2
2022-07-29T16:03:35.711Z,1010.2
2022-07-29T16:04:35.642Z,1010.2
2022-07-29T16:06:35.644Z,1010.2
2022-07-29T16:07:35.644Z,1010.1
2022-07-29T16:08:35.634Z,1010.2
2022-07-29T16:09:35.639Z,1010.2
2022-07-29T16:10:35.636Z,1010.1
2022-07-29T16:11:35.633Z,1010.1
2022-07-29T16:12:35.631Z,1010.2
2022-07-29T16:16:35.713Z,1010.1
2022-07-29T16:17:35.653Z,1010.1
2022-07-29T16:18:35.641Z,1010.1
2022-07-29T16:20:35.644Z,1010.1
2022-07-29T16:21:35.701Z,1010.1
2022-07-29T16:22:35.638Z,1010
2022-07-29T16:23:35.647Z,1010
2022-07-29T16:24:35.650Z,1010
2022-07-29T16:26:35.649Z,1010.1
2022-07-29T16:28:35.642Z,1010.1
2022-07-29T16:29:35.646Z,1010.1
2022-07-29T16:30:35.655Z,1010.1
2022-07-29T16:31:35.722Z,1010.1
2022-07-29T16:32:35.667Z,1010.1
2022-07-29T16:33:54.414Z,1010.1
2022-07-29T16:34:35.651Z,1010.1
2022-07-29T16:36:35.643Z,1010.1
2022-07-29T16:37:35.649Z,1010.1
2022-07-29T16:38:35.652Z,1010.1
2022-07-29T16:39:35.645Z,1010.1
2022-07-29T16:41:35.646Z,1010.1
2022-07-29T16:42:50.970Z,1010.1
2022-07-29T16:43:35.652Z,1010.1
2022-07-29T16:44:36.065Z,1010.1
2022-07-29T16:45:45.113Z,1010
2022-07-29T16:47:35.647Z,1010.1
2022-07-29T16:49:35.652Z,1010.1
2022-07-29T16:50:35.665Z,1010.1
2022-07-29T16:51:35.642Z,1010.1